Stations météo

réclame
Mon MeteoGroup
Hemavan, Suède (2104): Température de l'air & dewpoint: 12.09.2019 11:00:00 - 18.09.2019 11:00:00 (CEST)Hemavan, Suède (2104): Vitesse du vent: 12.09.2019 11:00:00 - 18.09.2019 11:00:00 (CEST)Hemavan, Suède (2104): Direction du vent: 12.09.2019 11:00:00 - 18.09.2019 11:00:00 (CEST)Hemavan, Suède (2104): visibility: 12.09.2019 11:00:00 - 18.09.2019 11:00:00 (CEST)
Date & Time tt [°C] td [°C] ff [km/h] ff [knt] dd vv [km]
18.09.2019 11:00:00 4,0 3,0 4 2 - 10
18.09.2019 10:00:00 2,0 2,0 0 0 N 10
18.09.2019 09:00:00 0,0 0,0 4 2 N 0,3
18.09.2019 08:00:00 -1,0 -1,0 2 1 - 0,3
18.09.2019 07:00:00 -1,0 -1,0 4 2 N -
18.09.2019 06:00:00 -1,0 -1,0 4 2 E 0,4
18.09.2019 05:00:00 -1,0 -1,0 4 2 NNW 10
18.09.2019 04:00:00 -1,0 -1,0 0 0 N 0,1
18.09.2019 03:00:00 -1,0 -2,0 2 1 - 0,1
18.09.2019 02:00:00 -2,0 -2,0 4 2 NNW 10
18.09.2019 01:00:00 -1,0 -1,0 0 0 N 10
18.09.2019 00:00:00 -1,0 -1,0 2 1 SE 10
17.09.2019 23:00:00 0,0 -1,0 0 0 N 10
17.09.2019 22:00:00 0,0 0,0 0 0 N 10
17.09.2019 21:00:00 2,0 2,0 2 1 - 10
17.09.2019 20:00:00 5,0 1,0 5 3 NE 10
17.09.2019 19:00:00 7,0 2,0 13 7 WNW 10
17.09.2019 18:00:00 8,0 2,0 13 7 W 10
17.09.2019 17:00:00 8,0 2,0 9 5 W 10
17.09.2019 16:00:00 9,0 -1,0 11 6 W 10
17.09.2019 15:00:00 10,0 -1,0 5 3 N 10
17.09.2019 14:00:00 9,0 -2,0 5 3 WNW 10
17.09.2019 13:00:00 9,0 1,0 5 3 - 10
17.09.2019 12:00:00 8,0 0,0 0 0 N 10
17.09.2019 11:00:00 8,0 2,0 2 1 - 10
17.09.2019 10:00:00 5,0 3,0 0 0 N 10
17.09.2019 09:00:00 2,0 2,0 0 0 N 10
17.09.2019 08:00:00 0,0 0,0 0 0 N 0,1
17.09.2019 07:00:00 0,0 0,0 4 2 - 0,1
17.09.2019 06:00:00 1,0 0,0 4 2 - 10
17.09.2019 05:00:00 3,0 3,0 4 2 NNW 10
17.09.2019 04:00:00 3,0 3,0 4 2 - 10
17.09.2019 03:00:00 3,0 3,0 4 2 NW 10
17.09.2019 02:00:00 3,0 2,0 0 0 N 10
17.09.2019 01:00:00 3,0 3,0 2 1 - 10
17.09.2019 00:00:00 3,0 2,0 0 0 N 10
16.09.2019 23:00:00 2,0 2,0 0 0 N 10
16.09.2019 22:00:00 3,0 2,0 4 2 - 10
16.09.2019 21:00:00 4,0 2,0 2 1 - 10
16.09.2019 20:00:00 6,0 3,0 5 3 SE 10
16.09.2019 19:00:00 7,0 3,0 9 5 SSE 10
16.09.2019 18:00:00 8,0 2,0 11 6 SE 10
16.09.2019 17:00:00 8,0 2,0 8 4 SSE 10
16.09.2019 16:00:00 8,0 2,0 9 5 S 10
16.09.2019 15:00:00 - - - - - -
16.09.2019 14:00:00 8,0 1,0 5 3 SSE 10
16.09.2019 13:00:00 7,0 1,0 9 5 SSE 10
16.09.2019 12:00:00 7,0 1,0 11 6 S 10
16.09.2019 11:00:00 8,0 1,0 13 7 S 10
16.09.2019 10:00:00 6,0 1,0 15 8 S 10
16.09.2019 09:00:00 6,0 1,0 9 5 S 10
16.09.2019 08:00:00 5,0 2,0 11 6 SSE 10
16.09.2019 07:00:00 5,0 2,0 16 9 SSE 10
16.09.2019 06:00:00 5,0 2,0 15 8 S 10
16.09.2019 05:00:00 5,0 2,0 11 6 S 10
16.09.2019 04:00:00 5,0 2,0 8 4 S 10
16.09.2019 03:00:00 4,0 2,0 4 2 - 10
16.09.2019 02:00:00 4,0 2,0 2 1 - 10
16.09.2019 01:00:00 4,0 1,0 5 3 S 10
16.09.2019 00:00:00 5,0 2,0 13 7 SE 10
15.09.2019 23:00:00 4,0 2,0 11 6 SSE 10
15.09.2019 22:00:00 3,0 0,0 11 6 E 10
15.09.2019 21:00:00 5,0 1,0 18 10 E 10
15.09.2019 20:00:00 5,0 1,0 18 10 ESE 10
15.09.2019 19:00:00 6,0 2,0 22 12 E 10
15.09.2019 18:00:00 7,0 2,0 16 9 ESE 10
15.09.2019 17:00:00 8,0 2,0 16 9 ESE 10
15.09.2019 16:00:00 9,0 3,0 11 6 S 10
15.09.2019 15:00:00 9,0 3,0 18 10 E 10
15.09.2019 14:00:00 8,0 3,0 13 7 E 10
15.09.2019 13:00:00 8,0 4,0 15 8 SE 10
15.09.2019 12:00:00 7,0 4,0 11 6 SSE 10
15.09.2019 11:00:00 6,0 4,0 13 7 SSE 10
15.09.2019 10:00:00 5,0 3,0 15 8 SSE 10
15.09.2019 09:00:00 4,0 3,0 16 9 SSE 10
15.09.2019 08:00:00 4,0 3,0 16 9 SSE 10
15.09.2019 07:00:00 3,0 2,0 11 6 SE 10
15.09.2019 06:00:00 3,0 2,0 16 9 SSE 10
15.09.2019 05:00:00 4,0 2,0 22 12 SE 10
15.09.2019 04:00:00 4,0 2,0 21 11 SE 10
15.09.2019 03:00:00 4,0 2,0 28 15 SE 10
15.09.2019 02:00:00 4,0 2,0 24 13 SE 10
15.09.2019 01:00:00 4,0 2,0 21 11 SE 10
15.09.2019 00:00:00 5,0 1,0 13 7 SE 10
14.09.2019 23:00:00 4,0 2,0 15 8 SE 10
14.09.2019 22:00:00 3,0 2,0 9 5 SE 10
14.09.2019 21:00:00 2,0 2,0 9 5 SE 10
14.09.2019 20:00:00 4,0 3,0 8 4 SSE 10
14.09.2019 19:00:00 6,0 1,0 9 5 ESE 10
14.09.2019 18:00:00 5,0 3,0 9 5 W 10
14.09.2019 17:00:00 7,0 3,0 9 5 WSW 10
14.09.2019 16:00:00 7,0 2,0 16 9 W 10
14.09.2019 15:00:00 7,0 3,0 9 5 WSW 10
14.09.2019 14:00:00 6,0 3,0 13 7 NW 10
14.09.2019 13:00:00 5,0 3,0 4 2 - 10
14.09.2019 12:00:00 4,0 2,0 4 2 - 10
14.09.2019 11:00:00 4,0 2,0 5 3 W 10
14.09.2019 10:00:00 3,0 2,0 4 2 - 10
14.09.2019 09:00:00 4,0 2,0 5 3 - 8
14.09.2019 08:00:00 4,0 3,0 4 2 E 10
14.09.2019 07:00:00 3,0 2,0 4 2 - 10
14.09.2019 06:00:00 3,0 2,0 2 1 - 10
14.09.2019 05:00:00 3,0 2,0 4 2 - 10
14.09.2019 04:00:00 3,0 2,0 5 3 SW 10
14.09.2019 03:00:00 4,0 2,0 8 4 W 10
14.09.2019 02:00:00 4,0 2,0 8 4 W 10
14.09.2019 01:00:00 4,0 2,0 5 3 W 10
14.09.2019 00:00:00 2,0 2,0 4 2 - 10
13.09.2019 23:00:00 0,0 0,0 2 1 - 10
13.09.2019 22:00:00 2,0 1,0 5 3 E 10
13.09.2019 21:00:00 4,0 1,0 9 5 W 10
13.09.2019 20:00:00 5,0 2,0 5 3 N 10
13.09.2019 19:00:00 5,0 2,0 15 8 NNW 10
13.09.2019 18:00:00 5,0 2,0 21 11 WNW 10
13.09.2019 17:00:00 5,0 2,0 16 9 W 10
13.09.2019 16:00:00 7,0 1,0 18 10 NW 10
13.09.2019 15:00:00 7,0 2,0 21 11 W 10
13.09.2019 14:00:00 7,0 3,0 16 9 NW 10
13.09.2019 13:00:00 7,0 3,0 15 8 NW 10
13.09.2019 12:00:00 7,0 4,0 13 7 NW 10
13.09.2019 11:00:00 7,0 4,0 9 5 N 10
13.09.2019 10:00:00 6,0 4,0 4 2 N 10
13.09.2019 09:00:00 4,0 4,0 4 2 S 10
13.09.2019 08:00:00 3,0 3,0 2 1 - 10
13.09.2019 07:00:00 3,0 2,0 4 2 SSW 10
13.09.2019 06:00:00 4,0 3,0 0 0 N 8
13.09.2019 05:00:00 4,0 2,0 8 4 SW 10
13.09.2019 04:00:00 5,0 2,0 5 3 - 10
13.09.2019 03:00:00 6,0 3,0 5 3 - 10
13.09.2019 02:00:00 6,0 3,0 4 2 - 10
13.09.2019 01:00:00 6,0 3,0 9 5 W 10
13.09.2019 00:00:00 6,0 3,0 8 4 W 10
12.09.2019 23:00:00 7,0 4,0 5 3 NW 10
12.09.2019 22:00:00 7,0 5,0 4 2 - 10
12.09.2019 21:00:00 7,0 6,0 9 5 E 10
12.09.2019 20:00:00 8,0 6,0 2 1 - 10
12.09.2019 19:00:00 8,0 6,0 4 2 - 10
12.09.2019 18:00:00 8,0 6,0 2 1 - 6
12.09.2019 17:00:00 8,0 7,0 11 6 NW 6
12.09.2019 16:00:00 9,0 6,0 11 6 W 10
12.09.2019 15:00:00 12,0 6,0 13 7 W 10
12.09.2019 14:00:00 12,0 5,0 15 8 W 10
12.09.2019 13:00:00 10,0 7,0 9 5 WNW 10
12.09.2019 12:00:00 10,0 7,0 11 6 W 10
12.09.2019 11:00:00 11,0 7,0 11 6 WSW 10

tt = Température de l'air
td = dewpoint
ff = Vitesse du vent
dd = Direction du vent
vv = visibility

stations d'obs. à proximité